createdAt,value
2018-09-17T00:00:50.845Z,18.00
2018-09-17T00:03:22.048Z,15.10
2018-09-17T00:05:53.247Z,14.43
2018-09-17T00:08:24.667Z,15.33
2018-09-17T00:10:55.881Z,14.10
2018-09-17T00:13:27.079Z,15.17
2018-09-17T00:15:58.303Z,14.57
2018-09-17T00:18:29.518Z,14.53
2018-09-17T00:21:00.787Z,14.87
2018-09-17T00:23:31.945Z,15.53
2018-09-17T00:26:03.164Z,14.60
2018-09-17T00:28:34.367Z,15.40
2018-09-17T00:31:05.581Z,16.00
2018-09-17T00:33:36.809Z,17.03
2018-09-17T00:36:08.018Z,14.97
2018-09-17T00:38:39.242Z,16.40
2018-09-17T00:41:10.468Z,16.53
2018-09-17T00:43:41.689Z,15.73
2018-09-17T00:46:12.893Z,18.20
2018-09-17T00:48:44.094Z,16.57
2018-09-17T00:51:15.969Z,16.37
2018-09-17T00:53:47.179Z,17.33
2018-09-17T00:56:18.384Z,17.27
2018-09-17T00:58:49.611Z,19.50
2018-09-17T01:01:20.857Z,17.20
2018-09-17T01:03:52.071Z,17.03
2018-09-17T01:06:23.308Z,15.80
2018-09-17T01:08:54.519Z,15.97
2018-09-17T01:11:25.732Z,15.50
2018-09-17T01:13:56.972Z,15.97
2018-09-17T01:16:28.189Z,15.80
2018-09-17T01:18:59.446Z,17.27
2018-09-17T01:21:30.657Z,17.93
2018-09-17T01:24:01.867Z,16.40
2018-09-17T01:26:33.091Z,17.03
2018-09-17T01:29:04.296Z,16.07
2018-09-17T01:31:35.623Z,15.97
2018-09-17T01:34:06.826Z,15.00
2018-09-17T01:36:38.034Z,15.50
2018-09-17T01:39:10.466Z,17.93
2018-09-17T01:41:41.699Z,17.60
2018-09-17T01:44:12.955Z,18.97
2018-09-17T01:46:44.193Z,15.57
2018-09-17T01:49:15.390Z,16.70
2018-09-17T01:51:46.615Z,17.53
2018-09-17T01:54:17.825Z,16.57
2018-09-17T01:56:49.029Z,17.60
2018-09-17T01:59:20.229Z,17.40
2018-09-17T02:01:51.433Z,17.87
2018-09-17T02:04:22.642Z,16.97
2018-09-17T02:06:53.880Z,18.03
2018-09-17T02:09:25.110Z,19.27
2018-09-17T02:11:56.328Z,17.10
2018-09-17T02:14:27.539Z,17.70
2018-09-17T02:16:58.749Z,17.00
2018-09-17T02:19:30.084Z,17.53
2018-09-17T02:22:01.327Z,17.17
2018-09-17T02:24:32.577Z,17.20
2018-09-17T02:27:03.823Z,16.17
2018-09-17T02:29:35.074Z,17.20
2018-09-17T02:32:06.291Z,16.40
2018-09-17T02:34:37.499Z,16.77
2018-09-17T02:37:08.716Z,15.80
2018-09-17T02:39:39.947Z,15.57
2018-09-17T02:42:11.151Z,15.97
2018-09-17T02:44:42.357Z,15.50
2018-09-17T02:47:13.574Z,16.43
2018-09-17T02:49:44.805Z,16.83
2018-09-17T02:52:16.039Z,17.57
2018-09-17T02:54:47.240Z,18.43
2018-09-17T02:57:18.459Z,19.73
2018-09-17T02:59:49.680Z,19.53
2018-09-17T03:02:20.930Z,19.13
2018-09-17T03:04:52.211Z,17.00
2018-09-17T03:07:23.454Z,17.27
2018-09-17T03:09:54.654Z,18.70
2018-09-17T03:12:25.853Z,17.23
2018-09-17T03:14:57.054Z,16.17
2018-09-17T03:17:28.269Z,16.47
2018-09-17T03:19:59.490Z,17.83
2018-09-17T03:22:30.719Z,17.27
2018-09-17T03:25:01.924Z,19.47
2018-09-17T03:27:33.140Z,17.87
2018-09-17T03:30:04.451Z,17.83
2018-09-17T03:32:35.661Z,17.70
2018-09-17T03:35:06.898Z,17.37
2018-09-17T03:37:38.125Z,16.93
2018-09-17T03:40:09.339Z,19.63
2018-09-17T03:42:41.104Z,17.50
2018-09-17T03:45:12.813Z,18.30
2018-09-17T03:47:44.552Z,19.13
2018-09-17T03:50:16.253Z,20.53
2018-09-17T03:52:47.965Z,22.93
2018-09-17T03:55:19.665Z,20.03
2018-09-17T03:57:51.365Z,18.13
2018-09-17T04:00:23.119Z,19.63
2018-09-17T04:02:54.837Z,19.03
2018-09-17T04:05:26.548Z,18.27
2018-09-17T04:07:58.254Z,15.23
2018-09-17T04:10:29.956Z,17.03
2018-09-17T04:13:01.691Z,18.50
2018-09-17T04:15:32.893Z,18.27
2018-09-17T04:18:04.111Z,19.60
2018-09-17T04:20:35.332Z,19.97
2018-09-17T04:23:06.537Z,18.90
2018-09-17T04:25:38.297Z,21.07
2018-09-17T04:28:09.997Z,20.00
2018-09-17T04:30:41.809Z,19.70
2018-09-17T04:33:13.557Z,19.63
2018-09-17T04:35:45.284Z,21.23
2018-09-17T04:38:16.976Z,19.97
2018-09-17T04:40:48.692Z,19.97
2018-09-17T04:43:20.394Z,19.30
2018-09-17T04:45:52.100Z,19.23
2018-09-17T04:48:23.813Z,18.50
2018-09-17T04:50:55.609Z,21.20
2018-09-17T04:53:27.337Z,23.67
2018-09-17T04:55:59.056Z,23.80
2018-09-17T04:58:30.766Z,21.57
2018-09-17T05:01:02.482Z,23.73
2018-09-17T05:03:34.182Z,27.93
2018-09-17T05:06:05.927Z,20.13
2018-09-17T05:08:37.140Z,19.60
2018-09-17T05:11:08.374Z,18.80
2018-09-17T05:13:40.183Z,18.23
2018-09-17T05:16:11.397Z,18.30
2018-09-17T05:18:43.122Z,20.97
2018-09-17T05:21:14.849Z,19.27
2018-09-17T05:23:46.560Z,21.20
2018-09-17T05:26:18.305Z,20.63
2018-09-17T05:28:50.048Z,19.37
2018-09-17T05:31:21.254Z,20.90
2018-09-17T05:33:53.065Z,25.77
2018-09-17T05:36:24.771Z,23.73
2018-09-17T05:38:56.493Z,20.87
2018-09-17T05:41:28.230Z,20.23
2018-09-17T05:44:00.004Z,22.13
2018-09-17T05:46:31.767Z,20.33
2018-09-17T05:49:03.225Z,21.67
2018-09-17T05:51:34.693Z,22.67
2018-09-17T05:54:05.902Z,21.63
2018-09-17T05:56:37.149Z,24.70
2018-09-17T05:59:08.867Z,23.47
2018-09-17T06:01:40.621Z,22.77
2018-09-17T06:04:11.846Z,22.30
2018-09-17T06:06:43.121Z,23.90
2018-09-17T06:09:14.880Z,22.67
2018-09-17T06:11:46.638Z,24.47
2018-09-17T06:14:17.814Z,24.07
2018-09-17T06:16:49.515Z,25.57
2018-09-17T06:19:20.755Z,23.23
2018-09-17T06:21:52.464Z,26.20
2018-09-17T06:24:23.757Z,23.73
2018-09-17T06:26:54.961Z,23.27
2018-09-17T06:29:26.663Z,23.20
2018-09-17T06:31:57.869Z,23.27
2018-09-17T06:34:29.105Z,24.10
2018-09-17T06:37:00.929Z,22.73
2018-09-17T06:39:32.169Z,23.93
2018-09-17T06:42:03.903Z,23.87
2018-09-17T06:44:35.138Z,23.63
2018-09-17T06:47:08.852Z,22.97
2018-09-17T06:49:40.581Z,22.87
2018-09-17T06:52:11.790Z,23.93
2018-09-17T06:54:43.508Z,25.43
2018-09-17T06:57:14.723Z,22.77
2018-09-17T06:59:45.937Z,21.67
2018-09-17T07:02:17.158Z,24.83
2018-09-17T07:04:48.877Z,24.20
2018-09-17T07:07:20.097Z,26.67
2018-09-17T07:09:51.373Z,24.23
2018-09-17T07:12:23.069Z,26.20
2018-09-17T07:14:54.293Z,23.17
2018-09-17T07:17:25.498Z,22.40
2018-09-17T07:19:56.729Z,22.00
2018-09-17T07:22:27.944Z,24.27
2018-09-17T07:24:59.153Z,22.47
2018-09-17T07:27:30.369Z,21.37
2018-09-17T07:30:01.601Z,22.83
2018-09-17T07:32:32.806Z,20.27
2018-09-17T07:35:04.014Z,20.77
2018-09-17T07:37:35.237Z,18.50
2018-09-17T07:40:06.471Z,19.97
2018-09-17T07:42:37.702Z,20.30
2018-09-17T07:45:08.920Z,20.27
2018-09-17T07:47:40.221Z,17.80
2018-09-17T07:50:11.462Z,18.97
2018-09-17T07:52:43.165Z,17.07
2018-09-17T07:55:14.862Z,20.93
2018-09-17T07:57:46.600Z,19.27
2018-09-17T08:00:18.310Z,18.70
2018-09-17T08:02:49.543Z,18.60
2018-09-17T08:05:20.773Z,17.07
2018-09-17T08:07:51.984Z,18.17
2018-09-17T08:10:24.326Z,16.70
2018-09-17T08:12:55.534Z,18.97
2018-09-17T08:15:26.756Z,17.07
2018-09-17T08:17:57.975Z,15.67
2018-09-17T08:20:29.204Z,16.00
2018-09-17T08:23:00.433Z,14.80
2018-09-17T08:25:31.726Z,15.30
2018-09-17T08:28:02.904Z,14.90
2018-09-17T08:30:34.121Z,15.23
2018-09-17T08:33:05.341Z,14.63
2018-09-17T08:35:36.574Z,13.30
2018-09-17T08:38:07.842Z,12.68
2018-09-17T08:40:39.026Z,11.78
2018-09-17T08:43:10.252Z,12.53
2018-09-17T08:45:41.521Z,12.88
2018-09-17T08:48:12.682Z,11.20
2018-09-17T08:50:43.892Z,12.93
2018-09-17T08:53:15.112Z,11.75
2018-09-17T08:55:50.909Z,10.88
2018-09-17T08:58:25.118Z,10.75
2018-09-17T09:01:01.954Z,10.68
2018-09-17T09:03:38.197Z,11.88
2018-09-17T09:06:15.125Z,10.15
2018-09-17T09:08:46.414Z,9.75
2018-09-17T09:11:20.649Z,9.68
2018-09-17T09:13:55.738Z,10.63
2018-09-17T09:16:26.963Z,9.70
2018-09-17T09:18:58.217Z,10.65
2018-09-17T09:21:29.454Z,9.75
2018-09-17T09:24:00.737Z,9.80
2018-09-17T09:26:31.996Z,8.45
2018-09-17T09:29:03.230Z,12.28
2018-09-17T09:31:34.567Z,9.43
2018-09-17T09:34:05.803Z,9.60
2018-09-17T09:36:37.017Z,8.80
2018-09-17T09:39:09.132Z,8.75
2018-09-17T09:41:40.365Z,8.70
2018-09-17T09:44:11.636Z,8.55
2018-09-17T09:46:42.860Z,8.50
2018-09-17T09:49:14.085Z,8.40
2018-09-17T09:51:45.308Z,9.38
2018-09-17T09:54:16.558Z,8.78
2018-09-17T09:56:47.794Z,8.63
2018-09-17T09:59:19.006Z,7.80
2018-09-17T10:01:57.886Z,7.75
2018-09-17T10:04:29.131Z,8.05
2018-09-17T10:07:00.358Z,8.65
2018-09-17T10:09:37.298Z,8.48
2018-09-17T10:12:14.277Z,8.18
2018-09-17T10:14:51.185Z,7.40
2018-09-17T10:17:28.202Z,7.45
2018-09-17T10:19:59.428Z,7.58
2018-09-17T10:22:30.653Z,7.85
2018-09-17T10:25:01.850Z,7.45
2018-09-17T10:27:33.077Z,7.45
2018-09-17T10:30:04.366Z,7.78
2018-09-17T10:32:35.607Z,6.95
2018-09-17T10:35:06.812Z,6.12
2018-09-17T10:37:38.048Z,7.20
2018-09-17T10:40:09.347Z,7.10
2018-09-17T10:42:40.550Z,8.00
2018-09-17T10:45:11.798Z,5.75
2018-09-17T10:47:43.005Z,5.70
2018-09-17T10:50:14.238Z,4.90
2018-09-17T10:52:45.442Z,5.12
2018-09-17T10:55:16.647Z,4.58
2018-09-17T10:57:47.879Z,4.28
2018-09-17T11:00:20.326Z,4.47
2018-09-17T11:02:51.590Z,4.45
2018-09-17T11:05:22.820Z,3.92
2018-09-17T11:07:54.067Z,3.83
2018-09-17T11:10:25.374Z,4.58
2018-09-17T11:12:56.613Z,3.47
2018-09-17T11:15:32.419Z,3.20
2018-09-17T11:18:03.650Z,3.45
2018-09-17T11:20:34.869Z,5.47
2018-09-17T11:23:06.173Z,3.60
2018-09-17T11:25:37.397Z,3.80
2018-09-17T11:28:08.685Z,6.85
2018-09-17T11:30:39.885Z,3.50
2018-09-17T11:33:11.161Z,4.25
2018-09-17T11:35:42.413Z,4.35
2018-09-17T11:38:13.633Z,3.62
2018-09-17T11:40:44.842Z,3.92
2018-09-17T11:43:16.077Z,3.65
2018-09-17T11:45:47.303Z,4.65
2018-09-17T11:48:18.576Z,3.58
2018-09-17T11:50:49.758Z,3.70
2018-09-17T11:53:21.025Z,4.05
2018-09-17T11:55:52.353Z,4.05
2018-09-17T11:58:23.591Z,3.87
2018-09-17T12:01:00.394Z,3.70
2018-09-17T12:03:37.811Z,4.20
2018-09-17T12:06:09.532Z,5.42
2018-09-17T12:08:41.247Z,3.15
2018-09-17T12:11:12.941Z,3.08
2018-09-17T12:13:44.190Z,5.80
2018-09-17T12:16:15.413Z,5.80
2018-09-17T12:18:46.635Z,4.12
2018-09-17T12:21:17.900Z,4.40
2018-09-17T12:23:49.151Z,3.15
2018-09-17T12:26:20.367Z,2.80
2018-09-17T12:28:51.585Z,3.95
2018-09-17T12:31:22.829Z,3.90
2018-09-17T12:33:54.111Z,4.00
2018-09-17T12:36:25.296Z,3.25
2018-09-17T12:38:56.515Z,2.58
2018-09-17T12:41:27.738Z,2.62
2018-09-17T12:43:58.957Z,3.40
2018-09-17T12:46:30.217Z,3.05
2018-09-17T12:49:01.437Z,3.55
2018-09-17T12:51:32.670Z,5.00
2018-09-17T12:54:03.930Z,2.75
2018-09-17T12:56:35.217Z,2.90
2018-09-17T12:59:06.459Z,2.80
2018-09-17T13:01:37.690Z,3.42
2018-09-17T13:04:08.909Z,3.37
2018-09-17T13:06:40.133Z,3.17
2018-09-17T13:09:11.646Z,3.12
2018-09-17T13:11:42.857Z,3.27
2018-09-17T13:14:14.125Z,2.85
2018-09-17T13:16:45.364Z,2.92
2018-09-17T13:19:16.612Z,2.70
2018-09-17T13:21:47.836Z,3.62
2018-09-17T13:24:19.070Z,2.80
2018-09-17T13:26:50.274Z,3.10
2018-09-17T13:29:21.584Z,2.98
2018-09-17T13:31:52.898Z,3.45
2018-09-17T13:34:24.047Z,3.12
2018-09-17T13:36:55.305Z,4.10
2018-09-17T13:39:26.581Z,4.20
2018-09-17T13:41:57.905Z,3.40
2018-09-17T13:44:29.171Z,3.60
2018-09-17T13:47:00.851Z,3.40
2018-09-17T13:49:32.640Z,3.60
2018-09-17T13:52:03.822Z,3.10
2018-09-17T13:54:35.065Z,4.20
2018-09-17T13:57:06.317Z,3.15
2018-09-17T13:59:37.539Z,3.75
2018-09-17T14:02:09.008Z,3.58
2018-09-17T14:04:40.265Z,3.12
2018-09-17T14:07:11.501Z,3.25
2018-09-17T14:09:42.764Z,4.17
2018-09-17T14:12:14.044Z,3.40
2018-09-17T14:14:45.297Z,3.17
2018-09-17T14:17:16.513Z,3.85
2018-09-17T14:19:47.776Z,3.50
2018-09-17T14:22:19.113Z,3.70
2018-09-17T14:24:50.321Z,4.47
2018-09-17T14:27:22.106Z,3.62
2018-09-17T14:29:53.317Z,3.83
2018-09-17T14:32:30.287Z,3.70
2018-09-17T14:35:01.576Z,3.70
2018-09-17T14:37:32.797Z,3.83
2018-09-17T14:40:04.030Z,3.75
2018-09-17T14:42:35.246Z,4.35
2018-09-17T14:45:06.452Z,3.47
2018-09-17T14:47:37.690Z,3.80
2018-09-17T14:50:08.933Z,4.12
2018-09-17T14:52:40.141Z,3.50
2018-09-17T14:55:11.367Z,7.72
2018-09-17T14:57:42.574Z,72.50
2018-09-17T15:00:13.802Z,5.78
2018-09-17T15:02:45.065Z,5.03
2018-09-17T15:05:16.266Z,4.60
2018-09-17T15:07:47.528Z,3.17
2018-09-17T15:10:18.832Z,3.20
2018-09-17T15:12:50.061Z,3.00
2018-09-17T15:15:22.134Z,3.87
2018-09-17T15:17:53.339Z,3.40
2018-09-17T15:20:24.610Z,3.52
2018-09-17T15:22:55.769Z,3.92
2018-09-17T15:25:27.057Z,3.85
2018-09-17T15:27:58.310Z,3.65
2018-09-17T15:30:29.502Z,4.17
2018-09-17T15:33:01.218Z,3.50
2018-09-17T15:35:32.941Z,3.70
2018-09-17T15:38:04.806Z,3.77
2018-09-17T15:40:36.523Z,4.53
2018-09-17T15:43:08.207Z,4.47
2018-09-17T15:45:39.418Z,4.53
2018-09-17T15:48:10.649Z,4.25
2018-09-17T15:50:41.886Z,3.62
2018-09-17T15:53:13.114Z,3.37
2018-09-17T15:55:44.347Z,3.60
2018-09-17T15:58:16.147Z,3.85
2018-09-17T16:00:47.849Z,3.27
2018-09-17T16:03:19.053Z,3.47
2018-09-17T16:05:50.267Z,4.05
2018-09-17T16:08:21.485Z,6.72
2018-09-17T16:10:52.689Z,3.87
2018-09-17T16:13:23.921Z,3.20
2018-09-17T16:15:55.131Z,4.03
2018-09-17T16:18:26.841Z,3.45
2018-09-17T16:20:58.583Z,4.67
2018-09-17T16:23:30.280Z,5.25
2018-09-17T16:26:01.977Z,6.12
2018-09-17T16:28:33.756Z,7.12
2018-09-17T16:31:05.448Z,4.53
2018-09-17T16:33:37.197Z,4.35
2018-09-17T16:36:08.874Z,4.42
2018-09-17T16:38:40.574Z,5.72
2018-09-17T16:41:12.279Z,4.17
2018-09-17T16:43:43.521Z,6.65
2018-09-17T16:46:21.789Z,5.12
2018-09-17T16:48:52.990Z,4.87
2018-09-17T16:51:24.301Z,4.78
2018-09-17T16:53:56.014Z,6.03
2018-09-17T16:56:27.936Z,6.55
2018-09-17T16:58:59.682Z,5.78
2018-09-17T17:01:31.440Z,4.53
2018-09-17T17:04:03.146Z,4.85
2018-09-17T17:06:34.358Z,4.92
2018-09-17T17:09:05.566Z,4.60
2018-09-17T17:11:36.777Z,5.15
2018-09-17T17:14:07.998Z,6.53
2018-09-17T17:16:39.329Z,5.30
2018-09-17T17:19:10.567Z,5.30
2018-09-17T17:21:41.799Z,4.75
2018-09-17T17:24:13.013Z,6.78
2018-09-17T17:26:44.254Z,5.15
2018-09-17T17:29:15.510Z,5.33
2018-09-17T17:31:46.725Z,5.58
2018-09-17T17:34:17.959Z,7.00
2018-09-17T17:36:49.181Z,8.70
2018-09-17T17:39:20.467Z,6.97
2018-09-17T17:41:51.673Z,6.17
2018-09-17T17:44:22.880Z,5.75
2018-09-17T17:46:54.162Z,6.20
2018-09-17T17:49:25.403Z,5.80
2018-09-17T17:51:56.705Z,6.05
2018-09-17T17:54:27.892Z,5.60
2018-09-17T17:56:59.080Z,9.95
2018-09-17T17:59:30.295Z,8.83
2018-09-17T18:02:01.536Z,9.93
2018-09-17T18:04:33.241Z,9.90
2018-09-17T18:07:04.482Z,9.90
2018-09-17T18:09:35.693Z,8.83
2018-09-17T18:12:06.920Z,12.45
2018-09-17T18:14:38.166Z,11.22
2018-09-17T18:17:09.392Z,6.90
2018-09-17T18:19:40.638Z,7.10
2018-09-17T18:22:11.847Z,6.05
2018-09-17T18:24:43.067Z,8.55
2018-09-17T18:27:14.335Z,9.65
2018-09-17T18:29:45.493Z,10.90
2018-09-17T18:32:16.806Z,10.85
2018-09-17T18:34:48.015Z,10.43
2018-09-17T18:37:19.223Z,11.40
2018-09-17T18:39:50.449Z,11.55
2018-09-17T18:42:21.703Z,13.43
2018-09-17T18:44:52.939Z,9.75
2018-09-17T18:47:24.604Z,10.35
2018-09-17T18:49:55.849Z,10.70
2018-09-17T18:52:27.053Z,10.70
2018-09-17T18:54:58.769Z,11.90
2018-09-17T18:57:30.512Z,11.43
2018-09-17T19:00:02.212Z,11.28
2018-09-17T19:02:33.918Z,10.63
2018-09-17T19:05:06.640Z,11.83
2018-09-17T19:07:38.340Z,11.43
2018-09-17T19:10:10.046Z,11.53
2018-09-17T19:12:41.815Z,13.63
2018-09-17T19:15:19.279Z,13.63
2018-09-17T19:17:50.993Z,11.10
2018-09-17T19:20:22.815Z,11.63
2018-09-17T19:23:00.113Z,12.20
2018-09-17T19:25:31.822Z,12.23
2018-09-17T19:28:09.281Z,11.60
2018-09-17T19:30:40.951Z,10.67
2018-09-17T19:33:12.724Z,11.40
2018-09-17T19:35:44.507Z,10.97
2018-09-17T19:38:21.944Z,11.47
2018-09-17T19:40:54.610Z,10.57
2018-09-17T19:43:26.313Z,11.73
2018-09-17T19:46:03.649Z,10.23
2018-09-17T19:48:35.354Z,9.90
2018-09-17T19:51:12.675Z,11.60
2018-09-17T19:53:44.446Z,9.50
2018-09-17T19:56:16.170Z,10.03
2018-09-17T19:58:53.524Z,12.03
2018-09-17T20:01:25.220Z,13.60
2018-09-17T20:04:01.507Z,12.97
2018-09-17T20:06:33.236Z,13.47
2018-09-17T20:09:04.937Z,10.30
2018-09-17T20:11:36.839Z,12.87
2018-09-17T20:14:08.532Z,17.53
2018-09-17T20:16:40.228Z,13.03
2018-09-17T20:19:11.929Z,12.97
2018-09-17T20:21:43.630Z,11.20
2018-09-17T20:24:15.331Z,12.47
2018-09-17T20:26:47.021Z,9.77
2018-09-17T20:29:18.720Z,11.00
2018-09-17T20:31:50.546Z,11.37
2018-09-17T20:34:22.169Z,10.47
2018-09-17T20:36:53.877Z,10.43
2018-09-17T20:39:25.688Z,12.60
2018-09-17T20:41:57.577Z,13.63
2018-09-17T20:44:29.309Z,13.37
2018-09-17T20:47:01.038Z,11.03
2018-09-17T20:49:32.831Z,12.00
2018-09-17T20:52:04.467Z,10.40
2018-09-17T20:54:36.181Z,11.67
2018-09-17T20:57:07.888Z,8.37
2018-09-17T20:59:39.625Z,10.67
2018-09-17T21:02:11.326Z,10.47
2018-09-17T21:04:43.028Z,10.17
2018-09-17T21:07:14.740Z,13.33
2018-09-17T21:09:46.453Z,8.60
2018-09-17T21:12:18.149Z,10.67
2018-09-17T21:14:49.848Z,11.27
2018-09-17T21:17:21.557Z,10.70
2018-09-17T21:19:53.261Z,10.50
2018-09-17T21:22:24.984Z,8.97
2018-09-17T21:24:56.797Z,10.43
2018-09-17T21:27:28.444Z,8.77
2018-09-17T21:30:00.178Z,8.40
2018-09-17T21:32:31.908Z,10.57
2018-09-17T21:35:03.625Z,9.63
2018-09-17T21:37:35.378Z,10.60
2018-09-17T21:40:07.104Z,11.47
2018-09-17T21:42:38.797Z,11.03
2018-09-17T21:45:10.561Z,10.80
2018-09-17T21:47:42.261Z,10.57
2018-09-17T21:50:13.968Z,10.80
2018-09-17T21:52:45.687Z,11.07
2018-09-17T21:55:17.490Z,10.93
2018-09-17T21:57:49.212Z,12.03
2018-09-17T22:00:20.920Z,10.47
2018-09-17T22:02:52.649Z,11.37
2018-09-17T22:05:24.408Z,10.83
2018-09-17T22:07:56.108Z,12.60
2018-09-17T22:10:27.829Z,11.87
2018-09-17T22:12:59.540Z,10.87
2018-09-17T22:15:31.249Z,10.57
2018-09-17T22:18:03.016Z,12.10
2018-09-17T22:20:34.724Z,10.57
2018-09-17T22:23:06.449Z,12.57
2018-09-17T22:25:38.156Z,13.43
2018-09-17T22:28:09.887Z,11.10
2018-09-17T22:30:41.601Z,11.93
2018-09-17T22:33:13.309Z,11.13
2018-09-17T22:35:45.037Z,12.27
2018-09-17T22:38:16.912Z,16.10
2018-09-17T22:40:48.666Z,13.30
2018-09-17T22:43:20.377Z,12.13
2018-09-17T22:45:52.094Z,12.23
2018-09-17T22:48:23.817Z,11.90
2018-09-17T22:50:55.540Z,11.93
2018-09-17T22:53:27.400Z,8.80
2018-09-17T22:55:59.093Z,10.87
2018-09-17T22:58:30.840Z,9.57
2018-09-17T23:01:02.586Z,8.93
2018-09-17T23:03:34.367Z,4.13
2018-09-17T23:06:05.702Z,11.20
2018-09-17T23:08:43.825Z,9.10
2018-09-17T23:11:15.203Z,9.00
2018-09-17T23:13:46.506Z,11.70
2018-09-17T23:16:17.775Z,10.60
2018-09-17T23:18:49.389Z,10.33
2018-09-17T23:21:20.721Z,13.07
2018-09-17T23:23:52.028Z,11.47
2018-09-17T23:26:23.375Z,11.07
2018-09-17T23:28:54.729Z,9.30
2018-09-17T23:31:26.058Z,10.77
2018-09-17T23:33:57.329Z,9.27
2018-09-17T23:36:28.642Z,10.17
2018-09-17T23:38:59.963Z,18.60
2018-09-17T23:41:31.264Z,14.37
2018-09-17T23:44:03.041Z,14.30
2018-09-17T23:46:35.271Z,12.23
2018-09-17T23:49:07.024Z,9.73
2018-09-17T23:51:38.857Z,11.53
2018-09-17T23:54:10.613Z,10.33
2018-09-17T23:56:42.397Z,10.33
2018-09-17T23:59:14.166Z,9.30
